Track паламарчук Петр

Time Latitude Longitude Accuracy (66% radius in meters) Altitude (meters) Speed (km/hour) Bearing (degrees) Battery (%) GPS flag
08:01:55 57.204505 60.120818 10.720000267029 311 0.31000000238419 208.19999694824 9 1 delete
08:01:44 57.204532 60.120854 9.6480007171631 313 0 0 9 1 delete
08:01:40 57.204526 60.120876 9.6480007171631 315 0 0 9 1 delete
08:01:34 57.204514 60.120979 10.720000267029 311 0.52999997138977 77.099998474121 9 1 delete
08:01:23 57.204497 60.120937 11.791999816895 315 0.91000002622604 322.70001220703 9 1 delete
08:01:13 57.204481 60.120991 10.720000267029 315 0 0 9 1 delete
08:01:05 57.204473 60.120940 11.791999816895 315 0.37999999523163 29.799999237061 9 1 delete
08:01:02 57.204439 60.120934 11.791999816895 315 0.63999998569489 77.199996948242 9 1 delete
08:00:51 57.204451 60.120863 12.864000320435 317 0.40000000596046 35.799999237061 9 1 delete
08:00:40 57.204478 60.120817 10.720000267029 318 0.55000001192093 128.80000305176 9 1 delete
08:00:37 57.204475 60.120789 10.720000267029 318 0.63999998569489 79.800003051758 9 1 delete
08:00:30 57.204457 60.120732 11.791999816895 320 1.0099999904633 101.19999694824 9 1 delete
08:00:27 57.204447 60.120709 12.864000320435 321 1.1599999666214 255.19999694824 9 1 delete
08:00:22 57.204423 60.120811 12.864000320435 320 0.81999999284744 292 9 1 delete
08:00:19 57.204372 60.120864 11.791999816895 320 0.91000002622604 345.60000610352 9 1 delete
08:00:08 57.204308 60.120918 10.720000267029 320 0 0 9 1 delete
07:59:57 57.204312 60.120916 10.720000267029 320 0 0 9 1 delete
07:59:47 57.204322 60.120867 11.791999816895 321 1.6000000238419 150 9 1 delete
07:59:44 57.204364 60.120832 11.791999816895 321 1.6000000238419 197.69999694824 9 1 delete
07:59:39 57.204414 60.120825 10.720000267029 322 1.6100000143051 171.60000610352 9 1 delete
07:59:36 57.204443 60.120805 11.791999816895 322 1.6200000047684 179 9 1 delete
07:59:33 57.204459 60.120800 10.720000267029 321 0.15000000596046 273.60000610352 9 1 delete
07:59:25 57.204408 60.120748 11.791999816895 323 0.80000001192093 275.39999389648 9 1 delete
07:59:24 57.204408 60.120757 11.791999816895 323 0.18999999761581 234.60000610352 9 1 delete
07:59:17 57.204435 60.120826 10.720000267029 323 0 0 9 1 delete
07:59:15 57.204438 60.120841 10.720000267029 322 0 0 9 1 delete
07:59:04 57.204428 60.120857 5.3600001335144 320 0.62999999523163 222 9 1 delete
07:59:01 57.204457 60.120906 5.3600001335144 320 1.6299999952316 229 9 1 delete
07:58:58 57.204506 60.120962 5.3600001335144 319 1.6299999952316 242.69999694824 9 1 delete
07:58:55 57.204551 60.121053 5.3600001335144 319 1.6399999856949 241.69999694824 9 1 delete
07:58:54 57.204568 60.121086 5.3600001335144 319 1.6399999856949 246.39999389648 9 1 delete
07:58:53 57.204586 60.121117 4.2880001068115 320 1.6399999856949 236.10000610352 9 1 delete
07:58:46 57.204649 60.121162 5.3600001335144 321 1.6699999570847 74.099998474121 9 1 delete
07:58:44 57.204672 60.121080 5.3600001335144 321 1.6799999475479 70.599998474121 9 1 delete
07:58:43 57.204685 60.121036 5.3600001335144 321 1.6900000572205 52.799999237061 9 1 delete
07:58:42 57.204694 60.120993 5.3600001335144 322 1.6900000572205 44.599998474121 9 1 delete
07:58:39 57.204703 60.120902 5.3600001335144 327 1.710000038147 23.799999237061 9 1 delete
07:58:36 57.204700 60.120799 8.576000213623 326 1.7300000190735 22 9 1 delete
07:58:32 57.204670 60.120707 7.5040001869202 327 1.7400000095367 26.299999237061 9 1 delete
07:58:28 57.204704 60.120688 10.720000267029 327 0.40000000596046 265.70001220703 9 1 delete
07:58:21 57.204725 60.120768 12.864000320435 326 1.460000038147 340.20001220703 9 1 delete
07:58:20 57.204713 60.120780 10.720000267029 325 1.7599999904633 340.10000610352 9 1 delete
07:58:16 57.204674 60.120844 6.4320001602173 327 1.7599999904633 317.79998779297 9 1 delete
07:58:12 57.204630 60.120920 3.2160000801086 326 1.7400000095367 317.29998779297 9 1 delete
07:58:11 57.204622 60.120939 3.2160000801086 325 1.7300000190735 337 9 1 delete
07:58:07 57.204582 60.120924 3.2160000801086 325 1.7400000095367 355.5 9 1 delete
07:58:02 57.204539 60.120867 3.2160000801086 325 1.7699999809265 79.599998474121 9 1 delete
07:58:00 57.204527 60.120820 3.2160000801086 325 1.7799999713898 53.700000762939 9 1 delete
07:57:59 57.204514 60.120795 3.2160000801086 325 1.7799999713898 57.5 9 1 delete
07:57:50 57.204509 60.120727 3.2160000801086 325 0 0 9 1 delete